Time;durP1;ratioP1;P1;durP2;ratioP2;P2;SDS_P1;SDS_P2;PMS_P1;PMS_P2;Temp;Humidity;BMP_temperature;BMP_pressure;BME280_temperature;BME280_humidity;BME280_pressure;Samples;Min_cycle;Max_cycle;Signal;HPM_P1;HPM_P2
2021/05/20 00:08:42;;;;;;;7.87;6.83;;;;;;;9.32;100.00;100204.91;20946897;28;20221;-57
2021/05/20 00:18:42;;;;;;;8.20;7.23;;;;;;;9.25;100.00;100195.59;20967499;28;20219;-56
2021/05/20 00:28:43;;;;;;;9.33;8.33;;;;;;;9.12;100.00;100207.94;20951636;28;20223;-58
2021/05/20 00:38:43;;;;;;;8.13;7.33;;;;;;;9.01;100.00;100200.59;20959899;28;20216;-57
2021/05/20 00:48:44;;;;;;;8.23;7.43;;;;;;;8.82;100.00;100205.28;20956475;28;20231;-63
2021/05/20 01:08:40;;;;;;;6.60;6.00;;;;;;;8.52;100.00;100199.97;20878212;27;20573;-58
2021/05/20 01:18:40;;;;;;;6.90;6.30;;;;;;;8.40;100.00;100211.28;20851737;28;20260;-59
2021/05/20 01:28:42;;;;;;;7.27;6.57;;;;;;;8.28;100.00;100208.34;20871622;28;20224;-58
2021/05/20 01:38:42;;;;;;;7.43;6.73;;;;;;;8.21;100.00;100206.16;20848550;28;20238;-57
2021/05/20 01:48:44;;;;;;;8.50;7.68;;;;;;;8.12;100.00;100218.13;20869945;28;20227;-59
2021/05/20 01:58:45;;;;;;;10.43;9.33;;;;;;;8.11;100.00;100221.72;20852449;28;20365;-58
2021/05/20 02:08:46;;;;;;;10.33;9.33;;;;;;;8.17;100.00;100221.41;20864059;28;20224;-66
2021/05/20 02:18:46;;;;;;;10.07;9.03;;;;;;;8.19;100.00;100223.97;20810423;28;20224;-58
2021/05/20 02:28:47;;;;;;;10.73;9.63;;;;;;;8.18;100.00;100232.88;20799067;28;20979;-62
2021/05/20 02:38:47;;;;;;;9.00;8.10;;;;;;;8.16;100.00;100230.31;20809317;28;20250;-63
2021/05/20 02:48:47;;;;;;;11.07;9.87;;;;;;;8.15;100.00;100241.88;20791567;28;20224;-58
2021/05/20 03:08:45;;;;;;;11.60;9.30;;;;;;;9.17;100.00;100244.00;20856076;27;21483;-58
2021/05/20 03:18:45;;;;;;;8.00;7.20;;;;;;;10.08;100.00;100245.47;20870946;28;20225;-58
2021/05/20 03:28:46;;;;;;;8.02;7.32;;;;;;;11.10;100.00;100249.47;20853253;28;20317;-57
2021/05/20 03:38:46;;;;;;;9.50;8.40;;;;;;;12.20;91.13;100261.34;20866265;28;20224;-58
2021/05/20 03:48:47;;;;;;;8.57;7.37;;;;;;;13.60;85.19;100256.19;20860382;28;21248;-57
2021/05/20 03:58:47;;;;;;;5.87;5.37;;;;;;;14.58;78.12;100276.94;20857792;28;20510;-62
2021/05/20 04:08:48;;;;;;;5.80;5.30;;;;;;;15.01;73.97;100276.09;20866107;28;20237;-58
2021/05/20 04:18:48;;;;;;;6.50;5.90;;;;;;;14.70;74.28;100281.31;20824525;28;20231;-57
2021/05/20 04:28:49;;;;;;;6.40;5.90;;;;;;;14.24;77.59;100283.31;20823049;28;20313;-57
2021/05/20 04:38:50;;;;;;;6.97;6.37;;;;;;;13.40;78.42;100283.69;20821182;28;20278;-68
2021/05/20 04:48:50;;;;;;;7.57;6.03;;;;;;;12.69;79.78;100287.22;20787765;28;20223;-60
2021/05/20 04:58:51;;;;;;;6.40;5.80;;;;;;;12.43;82.97;100295.34;20724972;28;20588;-68
2021/05/20 05:08:51;;;;;;;5.83;5.33;;;;;;;12.24;84.04;100300.28;20753909;28;20228;-62
2021/05/20 05:18:52;;;;;;;5.27;4.77;;;;;;;11.98;86.66;100310.16;20824973;28;20896;-60
2021/05/20 05:28:53;;;;;;;5.43;4.90;;;;;;;11.68;87.05;100307.78;20778638;28;20224;-59
2021/05/20 05:38:54;;;;;;;6.07;5.10;;;;;;;11.74;88.24;100323.38;20769440;28;20219;-59
2021/05/20 05:48:56;;;;;;;4.70;4.30;;;;;;;11.92;88.51;100326.66;20801055;28;20224;-60
2021/05/20 05:58:57;;;;;;;5.90;4.33;;;;;;;12.14;85.55;100326.84;20783993;28;20282;-69
2021/05/20 06:08:57;;;;;;;3.90;3.60;;;;;;;12.34;83.94;100333.44;20804134;28;20220;-62
2021/05/20 06:18:58;;;;;;;3.43;3.10;;;;;;;12.57;79.36;100324.63;20780985;28;20228;-59
2021/05/20 06:28:58;;;;;;;3.10;2.80;;;;;;;12.87;78.45;100337.59;20803182;28;20224;-58
2021/05/20 06:38:59;;;;;;;4.30;2.80;;;;;;;13.07;73.73;100344.16;20785212;28;20239;-62
2021/05/20 06:48:59;;;;;;;3.10;2.80;;;;;;;13.19;75.84;100337.06;20797318;28;20311;-58
2021/05/20 07:09:19;;;;;;;2.73;2.47;;;;;;;13.63;68.25;100348.00;20789374;28;20226;-59
2021/05/20 07:19:20;;;;;;;1.80;1.70;;;;;;;13.88;67.27;100346.97;20796253;28;20228;-60
2021/05/20 07:29:20;;;;;;;2.00;1.90;;;;;;;14.13;65.89;100345.03;20782235;28;20677;-59
2021/05/20 07:39:21;;;;;;;1.83;1.73;;;;;;;14.33;66.28;100350.53;20799053;28;20248;-59
2021/05/20 07:49:25;;;;;;;1.80;1.70;;;;;;;14.57;62.20;100365.69;20784363;28;20247;-63
2021/05/20 07:59:26;;;;;;;1.80;1.70;;;;;;;15.09;63.85;100344.34;20813899;28;20232;-61
2021/05/20 08:09:32;;;;;;;1.80;1.70;;;;;;;15.56;59.40;100344.09;20795001;28;20212;-64
2021/05/20 08:19:33;;;;;;;1.97;1.70;;;;;;;15.41;60.00;100341.69;20809802;28;20228;-58
2021/05/20 08:29:34;;;;;;;2.00;1.90;;;;;;;16.02;60.36;100333.78;20798139;28;20224;-65
2021/05/20 08:39:34;;;;;;;3.20;1.83;;;;;;;16.03;61.40;100338.19;20801771;28;20482;-63
2021/05/20 08:49:35;;;;;;;2.10;1.70;;;;;;;16.43;58.11;100340.06;20804274;28;20223;-59
2021/05/20 08:59:35;;;;;;;1.80;1.70;;;;;;;16.14;58.78;100338.09;20816255;28;20583;-59
2021/05/20 09:09:38;;;;;;;1.20;1.10;;;;;;;16.20;54.50;100334.84;20808898;28;20220;-59
2021/05/20 09:19:41;;;;;;;1.60;1.50;;;;;;;16.17;55.81;100335.16;20787119;28;20267;-63
2021/05/20 09:30:20;;;;;;;1.20;1.10;;;;;;;16.18;55.08;100344.91;20805961;28;20224;-59
2021/05/20 09:40:26;;;;;;;1.90;1.20;;;;;;;16.78;55.19;100343.22;20761562;28;20271;-64
2021/05/20 09:50:27;;;;;;;1.10;0.90;;;;;;;16.90;52.29;100335.88;20775216;28;20228;-59
2021/05/20 10:00:27;;;;;;;1.30;1.20;;;;;;;17.13;52.94;100347.25;20775194;28;20237;-59
2021/05/20 10:10:28;;;;;;;1.30;1.20;;;;;;;17.29;53.16;100339.44;20771524;28;20220;-64
2021/05/20 10:20:29;;;;;;;2.03;1.43;;;;;;;17.09;51.79;100333.19;20764925;28;20263;-59
2021/05/20 10:30:29;;;;;;;1.17;1.13;;;;;;;17.37;51.38;100318.03;20762268;28;20227;-61
2021/05/20 10:40:33;;;;;;;2.00;1.50;;;;;;;17.64;51.65;100314.63;20754435;28;20228;-60
2021/05/20 10:50:52;;;;;;;2.00;1.43;;;;;;;17.49;50.06;100322.31;20752879;28;20243;-69
2021/05/20 11:00:52;;;;;;;1.60;1.40;;;;;;;17.35;48.97;100330.81;20771008;28;20235;-58
2021/05/20 11:10:53;;;;;;;3.03;1.50;;;;;;;17.40;49.71;100336.63;20734110;28;20228;-58
2021/05/20 11:20:54;;;;;;;3.27;1.50;;;;;;;17.34;51.13;100342.59;20771572;28;20240;-58
2021/05/20 11:30:58;;;;;;;1.30;1.30;;;;;;;17.59;50.73;100347.44;20769823;28;20226;-59
2021/05/20 11:41:13;;;;;;;1.00;1.00;;;;;;;17.77;48.30;100335.91;20782002;28;20467;-60
2021/05/20 11:51:13;;;;;;;0.93;0.93;;;;;;;17.93;49.36;100328.94;20774873;28;20608;-60
2021/05/20 12:01:21;;;;;;;1.13;1.03;;;;;;;18.91;45.34;100314.91;20703101;28;20465;-67
2021/05/20 12:11:28;;;;;;;1.17;1.07;;;;;;;17.78;46.55;100313.31;20777488;28;20241;-67
2021/05/20 12:21:28;;;;;;;1.10;0.97;;;;;;;17.61;47.04;100313.06;20771032;28;20585;-67
2021/05/20 12:31:28;;;;;;;1.33;1.23;;;;;;;17.55;50.96;100327.09;20777978;28;20294;-67
2021/05/20 12:41:34;;;;;;;1.43;1.30;;;;;;;18.13;49.42;100312.66;20746416;28;20227;-67
2021/05/20 12:51:35;;;;;;;1.13;1.00;;;;;;;17.71;49.20;100317.63;20782873;28;20229;-67
2021/05/20 13:01:37;;;;;;;1.00;1.00;;;;;;;17.56;48.35;100314.47;20763431;28;20243;-68
2021/05/20 13:11:42;;;;;;;2.87;1.20;;;;;;;17.13;48.51;100310.38;20778669;28;20223;-67
2021/05/20 13:32:04;;;;;;;1.57;1.17;;;;;;;18.34;48.04;100316.88;20773578;28;20689;-66
2021/05/20 13:42:06;;;;;;;3.00;1.10;;;;;;;18.21;49.22;100302.84;20771746;28;20224;-67
2021/05/20 13:52:08;;;;;;;1.70;1.17;;;;;;;18.74;48.11;100304.88;20764441;28;20240;-67
2021/05/20 14:02:11;;;;;;;1.00;0.90;;;;;;;18.75;48.21;100298.47;20774849;28;20273;-67
2021/05/20 14:12:14;;;;;;;1.10;1.10;;;;;;;18.66;48.30;100299.41;20756806;28;21179;-67
2021/05/20 14:22:18;;;;;;;1.17;1.07;;;;;;;18.75;46.85;100287.66;20774535;28;20282;-67
2021/05/20 14:32:20;;;;;;;1.13;1.03;;;;;;;18.53;48.82;100299.72;20756423;28;20311;-67
2021/05/20 14:42:23;;;;;;;1.47;0.90;;;;;;;18.29;49.21;100305.66;20774190;28;20266;-66
2021/05/20 14:53:03;;;;;;;3.97;1.40;;;;;;;17.75;51.39;100300.16;20759444;28;20262;-67
2021/05/20 15:13:28;;;;;;;1.63;1.20;;;;;;;17.18;54.06;100318.00;20785046;28;20227;-65
2021/05/20 15:23:28;;;;;;;1.37;1.27;;;;;;;17.17;53.06;100319.00;20790136;28;20613;-66
2021/05/20 15:33:29;;;;;;;1.33;0.90;;;;;;;17.41;52.09;100315.88;20794507;28;20246;-66
2021/05/20 15:43:30;;;;;;;1.60;0.97;;;;;;;17.42;52.89;100306.81;20782152;28;20239;-65
2021/05/20 15:53:34;;;;;;;1.30;1.00;;;;;;;17.09;53.41;100308.94;20797632;28;20269;-66
2021/05/20 16:03:35;;;;;;;1.40;1.23;;;;;;;17.24;52.93;100320.16;20776999;28;20228;-65
2021/05/20 16:43:55;;;;;;;1.60;1.50;;;;;;;16.77;55.99;100338.81;20797637;28;20212;-65
2021/05/20 16:53:59;;;;;;;2.20;1.90;;;;;;;16.78;54.64;100356.69;20804234;28;20630;-66
2021/05/20 17:03:59;;;;;;;1.90;1.70;;;;;;;16.90;53.32;100352.88;20798307;28;20293;-66
2021/05/20 17:14:00;;;;;;;2.10;1.50;;;;;;;15.96;56.54;100365.75;20795269;28;20426;-64
2021/05/20 17:24:04;;;;;;;2.23;1.27;;;;;;;16.43;57.24;100361.59;20807561;28;20224;-66
2021/05/20 17:34:05;;;;;;;1.57;1.47;;;;;;;16.60;57.66;100354.75;20784540;28;20278;-65
2021/05/20 17:44:06;;;;;;;1.40;1.30;;;;;;;17.10;57.41;100350.22;20803516;28;20227;-63
2021/05/20 17:54:07;;;;;;;1.20;1.20;;;;;;;17.33;57.10;100356.22;20784614;28;20228;-63
2021/05/20 18:04:09;;;;;;;1.50;1.37;;;;;;;16.83;57.99;100351.72;20803327;28;20256;-63
2021/05/20 18:14:17;;;;;;;2.10;1.77;;;;;;;16.20;61.00;100356.41;20794415;28;20232;-63
2021/05/20 18:24:18;;;;;;;1.70;1.60;;;;;;;15.01;63.17;100351.34;20836917;28;20281;-64
2021/05/20 18:34:19;;;;;;;1.87;1.77;;;;;;;14.07;66.21;100363.31;20812727;28;20227;-64
2021/05/20 18:44:27;;;;;;;2.93;2.20;;;;;;;13.31;69.23;100358.44;20813226;28;20225;-64
2021/05/20 18:54:29;;;;;;;2.87;1.87;;;;;;;12.84;71.84;100369.09;20812319;28;20791;-63
2021/05/20 19:04:31;;;;;;;2.70;2.50;;;;;;;12.29;75.17;100354.34;20810745;28;20270;-64
2021/05/20 19:14:35;;;;;;;2.20;2.10;;;;;;;12.01;76.76;100373.28;20803800;28;20235;-64
2021/05/20 19:24:36;;;;;;;1.50;1.40;;;;;;;11.71;77.48;100382.41;20730853;28;20624;-64
2021/05/20 19:34:41;;;;;;;3.80;2.83;;;;;;;11.53;79.76;100380.97;20790146;28;20270;-64
2021/05/20 19:44:42;;;;;;;2.27;1.90;;;;;;;11.32;80.73;100372.59;20813688;28;20323;-66
2021/05/20 20:04:56;;;;;;;3.23;3.03;;;;;;;10.97;87.25;100382.06;20824702;28;20231;-67
2021/05/20 20:14:57;;;;;;;3.93;3.60;;;;;;;10.72;88.96;100369.44;20825113;28;20302;-65
2021/05/20 20:45:17;;;;;;;5.47;4.97;;;;;;;10.36;93.65;100378.81;20822227;28;20467;-58
2021/05/20 20:55:18;;;;;;;6.45;5.90;;;;;;;10.51;94.51;100370.78;20822836;28;20230;-61
2021/05/20 21:05:18;;;;;;;5.43;5.00;;;;;;;10.35;94.75;100379.78;20822328;28;20304;-60
2021/05/20 21:15:20;;;;;;;6.73;6.13;;;;;;;10.18;97.28;100379.94;20821616;28;20470;-62
2021/05/20 21:25:20;;;;;;;7.17;6.53;;;;;;;10.00;99.98;100376.59;20820903;28;20676;-61
2021/05/20 21:35:21;;;;;;;7.47;6.77;;;;;;;9.83;100.00;100373.22;20818917;28;20226;-60
2021/05/20 21:45:22;;;;;;;8.13;7.17;;;;;;;9.67;100.00;100374.13;20819365;28;20251;-60
2021/05/20 21:55:23;;;;;;;7.63;6.93;;;;;;;9.48;100.00;100368.19;20818647;28;20242;-60
2021/05/20 22:05:24;;;;;;;8.53;7.73;;;;;;;9.29;100.00;100364.91;20815545;28;20265;-65
2021/05/20 22:15:24;;;;;;;7.68;6.97;;;;;;;9.12;100.00;100363.19;20817061;28;20218;-59
2021/05/20 22:25:31;;;;;;;7.40;6.77;;;;;;;9.01;100.00;100362.97;20816404;28;20231;-60
2021/05/20 22:35:32;;;;;;;8.30;7.60;;;;;;;8.73;100.00;100321.06;20814338;28;20795;-60
2021/05/20 22:45:32;;;;;;;8.32;7.53;;;;;;;8.82;100.00;100357.81;20813396;28;20292;-63
2021/05/20 22:55:33;;;;;;;9.27;8.43;;;;;;;8.78;100.00;100350.09;20814351;28;20274;-59
2021/05/20 23:05:33;;;;;;;8.30;7.50;;;;;;;8.91;100.00;100351.97;20813596;28;20239;-60
2021/05/20 23:15:34;;;;;;;7.77;7.07;;;;;;;9.19;100.00;100355.69;20813182;28;21030;-59
2021/05/20 23:25:35;;;;;;;7.80;7.10;;;;;;;9.48;100.00;100359.34;20828914;28;20241;-59
2021/05/20 23:35:35;;;;;;;7.17;6.47;;;;;;;9.57;100.00;100356.97;20829734;28;20230;-59
2021/05/20 23:45:36;;;;;;;6.93;6.33;;;;;;;9.53;100.00;100365.25;20828709;28;20227;-59
2021/05/20 23:55:36;;;;;;;5.85;5.35;;;;;;;9.23;100.00;100358.09;20849059;28;20214;-60
